createdAt,value
2019-06-07T00:01:51.656Z,21.09
2019-06-07T00:04:25.114Z,21.04
2019-06-07T00:06:59.488Z,21.00
2019-06-07T00:09:32.731Z,20.96
2019-06-07T00:12:09.072Z,20.91
2019-06-07T00:14:41.386Z,20.85
2019-06-07T00:17:17.202Z,20.81
2019-06-07T00:19:50.243Z,20.78
2019-06-07T00:22:33.122Z,20.74
2019-06-07T00:24:59.003Z,20.71
2019-06-07T00:27:32.387Z,20.66
2019-06-07T00:30:40.114Z,20.64
2019-06-07T00:32:47.589Z,20.61
2019-06-07T00:35:22.438Z,20.57
2019-06-07T00:37:56.057Z,20.54
2019-06-07T00:40:32.046Z,20.55
2019-06-07T00:43:04.339Z,20.55
2019-06-07T00:45:37.637Z,20.56
2019-06-07T00:48:21.357Z,20.54
2019-06-07T00:50:45.990Z,20.52
2019-06-07T00:53:29.155Z,20.51
2019-06-07T00:55:54.711Z,20.51
2019-06-07T00:58:29.557Z,20.51
2019-06-07T01:01:03.109Z,20.51
2019-06-07T01:03:36.381Z,20.49
2019-06-07T01:06:09.574Z,20.47
2019-06-07T01:08:42.889Z,20.46
2019-06-07T01:11:18.542Z,20.42
2019-06-07T01:13:51.478Z,20.42
2019-06-07T01:16:26.425Z,20.41
2019-06-07T01:18:59.873Z,20.40
2019-06-07T01:21:33.272Z,20.37
2019-06-07T01:24:12.465Z,20.35
2019-06-07T01:26:41.873Z,20.35
2019-06-07T01:29:17.709Z,20.31
2019-06-07T01:31:50.353Z,20.28
2019-06-07T01:34:26.808Z,20.25
2019-06-07T01:36:58.861Z,20.23
2019-06-07T01:39:32.344Z,20.20
2019-06-07T01:42:05.833Z,20.17
2019-06-07T01:44:39.211Z,20.12
2019-06-07T01:47:12.641Z,20.10
2019-06-07T01:49:46.070Z,20.08
2019-06-07T01:52:20.074Z,20.08
2019-06-07T01:54:58.662Z,20.05
2019-06-07T01:57:44.834Z,20.05
2019-06-07T02:00:08.761Z,20.04
2019-06-07T02:02:42.218Z,20.03
2019-06-07T02:05:15.675Z,20.00
2019-06-07T02:07:49.037Z,20.02
2019-06-07T02:10:26.123Z,20.03
2019-06-07T02:12:58.107Z,20.02
2019-06-07T02:15:36.425Z,20.03
2019-06-07T02:18:06.517Z,20.04
2019-06-07T02:20:39.902Z,20.05
2019-06-07T02:23:13.262Z,20.07
2019-06-07T02:25:50.479Z,20.08
2019-06-07T02:28:30.084Z,20.10
2019-06-07T02:30:59.957Z,20.12
2019-06-07T02:33:39.139Z,20.13
2019-06-07T02:36:07.016Z,20.16
2019-06-07T02:38:40.481Z,20.19
2019-06-07T02:41:13.876Z,20.20
2019-06-07T02:43:47.260Z,20.23
2019-06-07T02:46:32.533Z,20.26
2019-06-07T02:48:59.871Z,20.32
2019-06-07T02:51:40.722Z,20.38
2019-06-07T02:54:08.395Z,20.44
2019-06-07T02:56:56.149Z,20.53
2019-06-07T02:59:17.132Z,20.66
2019-06-07T03:01:50.879Z,20.81
2019-06-07T03:04:28.556Z,20.99
2019-06-07T03:07:02.774Z,21.17
2019-06-07T03:09:37.071Z,21.37
2019-06-07T03:12:12.779Z,21.58
2019-06-07T03:14:46.416Z,21.77
2019-06-07T03:17:21.291Z,21.98
2019-06-07T03:19:57.016Z,22.20
2019-06-07T03:22:32.681Z,22.38
2019-06-07T03:25:07.707Z,22.58
2019-06-07T03:27:49.174Z,22.81
2019-06-07T03:32:49.258Z,23.25
2019-06-07T03:35:21.510Z,23.45
2019-06-07T03:37:53.780Z,23.60
2019-06-07T03:40:26.702Z,23.74
2019-06-07T03:42:59.224Z,23.90
2019-06-07T03:45:33.064Z,24.10
2019-06-07T03:50:41.851Z,24.42
2019-06-07T03:53:11.757Z,24.59
2019-06-07T03:55:43.966Z,24.77
2019-06-07T03:58:37.112Z,25.00
2019-06-07T04:00:50.419Z,25.17
2019-06-07T04:03:33.609Z,25.22
2019-06-07T04:05:56.688Z,25.25
2019-06-07T04:08:30.648Z,25.43
2019-06-07T04:11:02.825Z,25.56
2019-06-07T04:13:41.503Z,25.76
2019-06-07T04:16:08.889Z,25.93
2019-06-07T04:18:42.519Z,26.13
2019-06-07T04:21:15.031Z,26.34
2019-06-07T04:23:47.292Z,26.49
2019-06-07T04:26:19.574Z,26.63
2019-06-07T04:29:31.769Z,26.80
2019-06-07T04:31:25.779Z,26.95
2019-06-07T04:33:58.016Z,27.12
2019-06-07T04:36:47.547Z,27.36
2019-06-07T04:39:07.070Z,27.58
2019-06-07T04:41:40.921Z,27.75
2019-06-07T04:44:13.471Z,27.87
2019-06-07T04:46:47.229Z,28.05
2019-06-07T04:49:20.908Z,28.20
2019-06-07T04:51:54.192Z,28.35
2019-06-07T04:54:26.626Z,28.53
2019-06-07T04:56:58.933Z,28.69
2019-06-07T05:00:04.319Z,28.82
2019-06-07T05:02:05.248Z,28.96
2019-06-07T05:04:39.820Z,29.10
2019-06-07T05:07:11.631Z,29.23
2019-06-07T05:09:43.892Z,29.40
2019-06-07T05:12:16.143Z,29.47
2019-06-07T05:14:48.420Z,29.50
2019-06-07T05:17:20.664Z,29.51
2019-06-07T05:19:52.924Z,29.59
2019-06-07T05:22:25.141Z,29.61
2019-06-07T05:24:57.569Z,29.72
2019-06-07T05:27:32.591Z,29.80
2019-06-07T05:30:24.298Z,29.89
2019-06-07T05:32:45.210Z,29.94
2019-06-07T05:35:15.049Z,30.04
2019-06-07T05:37:47.392Z,30.25
2019-06-07T05:40:22.661Z,30.47
2019-06-07T05:42:55.066Z,30.62
2019-06-07T05:45:37.649Z,30.84
2019-06-07T05:48:07.555Z,30.84
2019-06-07T05:50:54.724Z,30.87
2019-06-07T05:53:13.809Z,30.93
2019-06-07T05:55:47.701Z,30.95
2019-06-07T05:58:19.958Z,31.06
2019-06-07T06:00:52.197Z,31.28
2019-06-07T06:03:24.532Z,31.26
2019-06-07T06:05:57.020Z,31.08
2019-06-07T06:08:29.295Z,31.11
2019-06-07T06:11:01.560Z,31.30
2019-06-07T06:13:36.498Z,31.54
2019-06-07T06:16:09.142Z,31.63
2019-06-07T06:18:45.800Z,31.70
2019-06-07T06:21:19.693Z,31.84
2019-06-07T06:23:51.968Z,31.84
2019-06-07T06:26:23.171Z,31.99
2019-06-07T06:28:56.350Z,32.22
2019-06-07T06:31:28.749Z,32.61
2019-06-07T06:34:01.063Z,32.77
2019-06-07T06:36:33.320Z,32.71
2019-06-07T06:39:07.857Z,32.84
2019-06-07T06:41:53.710Z,32.94
2019-06-07T06:44:14.085Z,32.57
2019-06-07T06:46:56.762Z,32.16
2019-06-07T06:49:20.398Z,31.65
2019-06-07T06:51:53.823Z,31.52
2019-06-07T06:54:40.010Z,31.50
2019-06-07T06:57:18.023Z,31.28
2019-06-07T06:59:39.038Z,30.88
2019-06-07T07:02:08.257Z,30.43
2019-06-07T07:04:42.315Z,30.14
2019-06-07T07:07:14.899Z,29.98
2019-06-07T07:09:51.513Z,29.94
2019-06-07T07:12:21.058Z,30.12
2019-06-07T07:14:56.052Z,30.23
2019-06-07T07:17:47.947Z,30.20
2019-06-07T07:20:02.284Z,30.33
2019-06-07T07:22:34.615Z,30.58
2019-06-07T07:25:09.654Z,30.74
2019-06-07T07:27:42.237Z,30.77
2019-06-07T07:30:36.319Z,30.90
2019-06-07T07:32:50.687Z,31.07
2019-06-07T07:35:22.712Z,30.92
2019-06-07T07:37:59.556Z,30.43
2019-06-07T07:40:56.812Z,30.05
2019-06-07T07:43:03.003Z,29.92
2019-06-07T07:45:35.343Z,29.71
2019-06-07T07:48:15.252Z,29.45
2019-06-07T07:50:41.749Z,29.30
2019-06-07T07:53:14.040Z,29.34
2019-06-07T07:55:51.515Z,29.50
2019-06-07T07:58:20.319Z,29.72
2019-06-07T08:01:00.253Z,29.89
2019-06-07T08:03:26.486Z,30.28
2019-06-07T08:06:00.171Z,30.76
2019-06-07T08:08:32.871Z,30.98
2019-06-07T08:11:05.138Z,31.13
2019-06-07T08:13:37.501Z,31.27
2019-06-07T08:16:15.971Z,31.44
2019-06-07T08:18:43.619Z,31.60
2019-06-07T08:21:25.523Z,31.70
2019-06-07T08:23:51.560Z,31.71
2019-06-07T08:26:23.887Z,31.70
2019-06-07T08:28:59.024Z,31.60
2019-06-07T08:31:30.025Z,31.57
2019-06-07T08:34:02.383Z,31.69
2019-06-07T08:36:41.919Z,31.63
2019-06-07T08:39:08.722Z,31.50
2019-06-07T08:41:53.980Z,31.56
2019-06-07T08:44:23.217Z,31.45
2019-06-07T08:46:56.597Z,31.12
2019-06-07T08:49:22.848Z,31.05
2019-06-07T08:52:04.516Z,31.16
2019-06-07T08:54:30.115Z,31.24
2019-06-07T08:57:20.143Z,31.16
2019-06-07T08:59:36.265Z,31.01
2019-06-07T09:02:22.971Z,30.85
2019-06-07T09:04:43.189Z,30.46
2019-06-07T09:07:20.003Z,30.15
2019-06-07T09:09:59.761Z,30.06
2019-06-07T09:12:25.206Z,30.08
2019-06-07T09:15:12.113Z,30.10
2019-06-07T09:17:31.402Z,29.89
2019-06-07T09:20:10.473Z,29.67
2019-06-07T09:22:39.505Z,29.56
2019-06-07T09:25:20.739Z,29.38
2019-06-07T09:27:46.306Z,29.12
2019-06-07T09:30:39.575Z,29.03
2019-06-07T09:33:12.632Z,28.88
2019-06-07T09:35:44.891Z,28.67
2019-06-07T09:38:25.643Z,28.42
2019-06-07T09:40:51.251Z,28.21
2019-06-07T09:46:01.023Z,28.04
2019-06-07T09:49:09.942Z,28.08
2019-06-07T09:51:19.138Z,28.20
2019-06-07T09:53:41.775Z,28.30
2019-06-07T09:56:13.982Z,28.42
2019-06-07T09:58:52.578Z,28.52
2019-06-07T10:01:20.274Z,28.63
2019-06-07T10:03:52.456Z,28.69
2019-06-07T10:06:24.749Z,28.65
2019-06-07T10:11:31.611Z,28.66
2019-06-07T10:14:04.514Z,28.61
2019-06-07T10:16:46.329Z,28.54
2019-06-07T10:19:10.714Z,28.53
2019-06-07T10:21:42.966Z,28.43
2019-06-07T10:24:15.211Z,28.40
2019-06-07T10:26:47.429Z,28.41
2019-06-07T10:29:19.649Z,28.45
2019-06-07T10:31:51.916Z,28.50
2019-06-07T10:34:24.231Z,28.58
2019-06-07T10:36:56.574Z,28.62
2019-06-07T10:39:28.792Z,28.66
2019-06-07T10:42:01.118Z,28.61
2019-06-07T10:44:33.401Z,28.56
2019-06-07T10:47:06.016Z,28.41
2019-06-07T10:49:38.461Z,28.33
2019-06-07T10:52:11.616Z,28.30
2019-06-07T10:54:44.484Z,28.45
2019-06-07T10:57:16.739Z,28.84
2019-06-07T10:59:49.045Z,29.07
2019-06-07T11:02:21.276Z,28.89
2019-06-07T11:04:53.466Z,28.69
2019-06-07T11:07:25.783Z,28.60
2019-06-07T11:10:07.115Z,28.56
2019-06-07T11:12:32.441Z,28.52
2019-06-07T11:15:06.726Z,28.55
2019-06-07T11:17:38.958Z,28.58
2019-06-07T11:20:12.388Z,28.60
2019-06-07T11:22:44.828Z,28.68
2019-06-07T11:25:18.568Z,28.68
2019-06-07T11:27:51.121Z,28.72
2019-06-07T11:30:23.477Z,28.81
2019-06-07T11:32:55.691Z,28.89
2019-06-07T11:35:27.949Z,28.95
2019-06-07T11:38:00.202Z,28.95
2019-06-07T11:40:35.826Z,29.03
2019-06-07T11:43:06.735Z,29.26
2019-06-07T11:45:38.987Z,29.54
2019-06-07T11:48:11.483Z,29.78
2019-06-07T11:50:43.738Z,29.90
2019-06-07T11:53:15.909Z,30.07
2019-06-07T11:55:48.170Z,30.17
2019-06-07T11:58:21.837Z,30.27
2019-06-07T12:00:54.371Z,30.36
2019-06-07T12:03:26.593Z,30.52
2019-06-07T12:05:58.872Z,30.74
2019-06-07T12:08:31.157Z,31.00
2019-06-07T12:11:03.479Z,31.26
2019-06-07T12:13:36.905Z,31.51
2019-06-07T12:16:09.235Z,31.62
2019-06-07T12:18:41.501Z,31.57
2019-06-07T12:21:13.800Z,31.78
2019-06-07T12:23:46.065Z,31.95
2019-06-07T12:26:18.666Z,32.01
2019-06-07T12:28:51.066Z,32.11
2019-06-07T12:31:23.343Z,32.24
2019-06-07T12:33:55.554Z,32.31
2019-06-07T12:36:27.791Z,32.26
2019-06-07T12:38:59.993Z,32.22
2019-06-07T12:41:32.239Z,32.20
2019-06-07T12:44:05.906Z,32.17
2019-06-07T12:46:38.161Z,32.19
2019-06-07T12:49:10.427Z,32.21
2019-06-07T12:51:42.695Z,32.30
2019-06-07T12:54:15.441Z,32.38
2019-06-07T12:56:47.782Z,32.34
2019-06-07T12:59:20.074Z,32.41
2019-06-07T13:01:52.329Z,32.45
2019-06-07T13:04:25.059Z,32.39
2019-06-07T13:06:57.747Z,32.39
2019-06-07T13:09:30.014Z,32.35
2019-06-07T13:12:02.721Z,32.39
2019-06-07T13:14:35.217Z,32.45
2019-06-07T13:17:07.475Z,32.40
2019-06-07T13:19:39.729Z,32.23
2019-06-07T13:22:11.985Z,32.22
2019-06-07T13:24:44.238Z,32.32
2019-06-07T13:27:16.503Z,32.44
2019-06-07T13:29:48.864Z,32.56
2019-06-07T13:32:21.659Z,32.60
2019-06-07T13:34:53.895Z,32.60
2019-06-07T13:37:27.652Z,32.51
2019-06-07T13:40:00.307Z,32.32
2019-06-07T13:42:32.648Z,32.16
2019-06-07T13:45:07.033Z,31.99
2019-06-07T13:47:39.275Z,31.69
2019-06-07T13:50:11.942Z,31.33
2019-06-07T13:52:46.303Z,31.12
2019-06-07T13:55:19.985Z,30.94
2019-06-07T13:57:52.378Z,30.73
2019-06-07T14:00:24.910Z,30.60
2019-06-07T14:02:57.481Z,30.56
2019-06-07T14:05:29.750Z,30.58
2019-06-07T14:08:02.017Z,30.63
2019-06-07T14:10:34.263Z,30.68
2019-06-07T14:13:06.690Z,30.78
2019-06-07T14:15:39.090Z,30.88
2019-06-07T14:18:11.510Z,30.97
2019-06-07T14:20:44.786Z,31.07
2019-06-07T14:23:16.961Z,31.22
2019-06-07T14:25:49.195Z,31.36
2019-06-07T14:28:24.683Z,31.39
2019-06-07T14:30:56.604Z,31.41
2019-06-07T14:33:30.648Z,31.45
2019-06-07T14:36:02.922Z,31.41
2019-06-07T14:38:37.475Z,31.21
2019-06-07T14:41:09.169Z,30.50
2019-06-07T14:43:43.868Z,29.57
2019-06-07T14:46:16.120Z,28.74
2019-06-07T14:48:48.495Z,27.80
2019-06-07T14:51:20.846Z,27.21
2019-06-07T14:53:53.127Z,26.88
2019-06-07T14:56:26.972Z,26.78
2019-06-07T14:58:59.598Z,26.78
2019-06-07T15:01:33.478Z,26.74
2019-06-07T15:04:06.028Z,26.81
2019-06-07T15:06:38.951Z,26.91
2019-06-07T15:09:11.394Z,27.02
2019-06-07T15:11:43.663Z,27.13
2019-06-07T15:14:16.967Z,27.26
2019-06-07T15:16:49.632Z,27.39
2019-06-07T15:19:24.137Z,27.48
2019-06-07T15:21:55.801Z,27.54
2019-06-07T15:24:28.162Z,27.52
2019-06-07T15:27:00.408Z,27.50
2019-06-07T15:29:33.827Z,27.46
2019-06-07T15:32:06.524Z,27.45
2019-06-07T15:34:38.697Z,27.47
2019-06-07T15:37:10.973Z,27.55
2019-06-07T15:39:43.353Z,27.60
2019-06-07T15:42:15.610Z,27.67
2019-06-07T15:44:47.897Z,27.69
2019-06-07T15:47:20.169Z,27.73
2019-06-07T15:49:52.469Z,27.70
2019-06-07T15:52:24.647Z,27.68
2019-06-07T15:54:56.938Z,27.62
2019-06-07T15:57:30.959Z,27.53
2019-06-07T16:00:04.475Z,27.40
2019-06-07T16:02:37.955Z,27.31
2019-06-07T16:05:10.314Z,27.22
2019-06-07T16:07:43.548Z,27.07
2019-06-07T16:10:16.644Z,26.93
2019-06-07T16:13:00.197Z,26.81
2019-06-07T16:15:23.796Z,26.69
2019-06-07T16:17:56.235Z,26.58
2019-06-07T16:20:28.523Z,26.53
2019-06-07T16:23:00.717Z,26.46
2019-06-07T16:25:33.976Z,26.43
2019-06-07T16:28:06.287Z,26.38
2019-06-07T16:30:38.598Z,26.35
2019-06-07T16:33:11.105Z,26.30
2019-06-07T16:35:43.386Z,26.24
2019-06-07T16:38:16.677Z,26.18
2019-06-07T16:40:48.926Z,26.16
2019-06-07T16:43:21.186Z,26.14
2019-06-07T16:45:53.372Z,26.14
2019-06-07T16:48:25.623Z,26.12
2019-06-07T16:50:57.793Z,26.11
2019-06-07T16:53:30.059Z,26.07
2019-06-07T16:56:02.454Z,26.04
2019-06-07T16:58:35.978Z,26.04
2019-06-07T17:01:08.218Z,26.01
2019-06-07T17:03:41.449Z,25.99
2019-06-07T17:06:14.030Z,25.98
2019-06-07T17:08:46.389Z,25.96
2019-06-07T17:11:18.707Z,25.92
2019-06-07T17:13:50.997Z,25.87
2019-06-07T17:16:23.456Z,25.81
2019-06-07T17:18:55.886Z,25.77
2019-06-07T17:21:28.091Z,25.74
2019-06-07T17:24:00.376Z,25.73
2019-06-07T17:26:32.754Z,25.69
2019-06-07T17:29:06.234Z,25.64
2019-06-07T17:31:39.795Z,25.59
2019-06-07T17:34:12.203Z,25.50
2019-06-07T17:36:46.443Z,25.42
2019-06-07T17:39:19.943Z,25.34
2019-06-07T17:42:01.797Z,25.26
2019-06-07T17:44:26.157Z,25.24
2019-06-07T17:46:58.422Z,25.21
2019-06-07T17:49:30.704Z,25.16
2019-06-07T17:52:02.940Z,25.12
2019-06-07T17:54:35.140Z,25.10
2019-06-07T17:57:07.431Z,25.04
2019-06-07T17:59:39.669Z,24.97
2019-06-07T18:02:15.388Z,24.91
2019-06-07T18:04:47.160Z,24.83
2019-06-07T18:07:20.632Z,24.81
2019-06-07T18:09:53.717Z,24.82
2019-06-07T18:12:25.974Z,24.84
2019-06-07T18:14:58.227Z,24.85
2019-06-07T18:17:34.525Z,24.83
2019-06-07T18:20:07.950Z,24.79
2019-06-07T18:22:40.282Z,24.76
2019-06-07T18:25:12.570Z,24.75
2019-06-07T18:27:44.845Z,24.71
2019-06-07T18:30:17.057Z,24.70
2019-06-07T18:32:49.316Z,24.69
2019-06-07T18:35:21.599Z,24.73
2019-06-07T18:37:55.094Z,24.75
2019-06-07T18:40:30.447Z,24.76
2019-06-07T18:43:02.922Z,24.73
2019-06-07T18:45:35.208Z,24.72
2019-06-07T18:48:07.399Z,24.72
2019-06-07T18:50:39.589Z,24.70
2019-06-07T18:53:11.837Z,24.66
2019-06-07T18:55:44.215Z,24.65
2019-06-07T18:58:16.555Z,24.64
2019-06-07T19:00:49.834Z,24.60
2019-06-07T19:03:23.679Z,24.60
2019-06-07T19:05:56.329Z,24.57
2019-06-07T19:08:28.671Z,24.55
2019-06-07T19:11:00.932Z,24.51
2019-06-07T19:13:33.202Z,24.55
2019-06-07T19:16:05.388Z,24.57
2019-06-07T19:18:37.904Z,24.55
2019-06-07T19:21:10.284Z,24.53
2019-06-07T19:23:42.563Z,24.48
2019-06-07T19:26:14.805Z,24.41
2019-06-07T19:28:47.057Z,24.37
2019-06-07T19:31:19.351Z,24.28
2019-06-07T19:33:51.567Z,24.21
2019-06-07T19:36:23.946Z,24.16
2019-06-07T19:38:56.240Z,24.12
2019-06-07T19:41:29.318Z,24.08
2019-06-07T19:44:02.436Z,24.05
2019-06-07T19:46:34.903Z,24.01
2019-06-07T19:49:07.162Z,23.99
2019-06-07T19:51:39.423Z,23.95
2019-06-07T19:54:11.698Z,23.89
2019-06-07T19:56:43.947Z,23.84
2019-06-07T19:59:16.201Z,23.78
2019-06-07T20:01:48.476Z,23.75
2019-06-07T20:04:20.761Z,23.73
2019-06-07T20:06:54.079Z,23.70
2019-06-07T20:09:26.523Z,23.67
2019-06-07T20:11:58.783Z,23.65
2019-06-07T20:14:31.064Z,23.63
2019-06-07T20:17:03.555Z,23.60
2019-06-07T20:19:36.058Z,23.58
2019-06-07T20:22:09.575Z,23.54
2019-06-07T20:24:42.101Z,23.49
2019-06-07T20:27:15.580Z,23.43
2019-06-07T20:29:47.857Z,23.36
2019-06-07T20:32:20.111Z,23.30
2019-06-07T20:34:52.353Z,23.27
2019-06-07T20:37:24.649Z,23.25
2019-06-07T20:39:57.063Z,23.26
2019-06-07T20:42:29.348Z,23.24
2019-06-07T20:45:02.120Z,23.25
2019-06-07T20:47:34.635Z,23.26
2019-06-07T20:50:10.373Z,23.23
2019-06-07T20:52:42.575Z,23.20
2019-06-07T20:55:14.930Z,23.17
2019-06-07T20:57:47.141Z,23.13
2019-06-07T21:00:21.919Z,23.10
2019-06-07T21:02:53.399Z,23.09
2019-06-07T21:05:25.650Z,23.06
2019-06-07T21:07:59.236Z,23.06
2019-06-07T21:10:31.758Z,23.06
2019-06-07T21:13:04.018Z,23.06
2019-06-07T21:15:48.383Z,23.06
2019-06-07T21:18:19.113Z,23.04
2019-06-07T21:20:44.271Z,23.01
2019-06-07T21:23:16.711Z,22.97
2019-06-07T21:25:48.897Z,22.92
2019-06-07T21:28:21.174Z,22.90
2019-06-07T21:30:53.427Z,22.91
2019-06-07T21:33:25.692Z,22.91
2019-06-07T21:35:57.893Z,22.87
2019-06-07T21:38:32.718Z,22.83
2019-06-07T21:41:06.100Z,22.83
2019-06-07T21:43:38.386Z,22.79
2019-06-07T21:46:17.301Z,22.76
2019-06-07T21:48:44.623Z,22.69
2019-06-07T21:51:16.789Z,22.64
2019-06-07T21:53:49.078Z,22.56
2019-06-07T21:56:21.260Z,22.55
2019-06-07T21:58:53.511Z,22.53
2019-06-07T22:01:27.544Z,22.54
2019-06-07T22:03:59.788Z,22.54
2019-06-07T22:06:31.962Z,22.54
2019-06-07T22:09:05.670Z,22.52
2019-06-07T22:11:37.995Z,22.50
2019-06-07T22:14:10.497Z,22.45
2019-06-07T22:16:42.796Z,22.42
2019-06-07T22:19:15.458Z,22.37
2019-06-07T22:22:01.805Z,22.30
2019-06-07T22:24:21.942Z,22.29
2019-06-07T22:26:54.209Z,22.29
2019-06-07T22:29:26.458Z,22.27
2019-06-07T22:31:58.645Z,22.24
2019-06-07T22:34:30.854Z,22.21
2019-06-07T22:37:03.118Z,22.19
2019-06-07T22:39:35.437Z,22.15
2019-06-07T22:42:09.244Z,22.12
2019-06-07T22:44:41.510Z,22.07
2019-06-07T22:47:14.067Z,22.05
2019-06-07T22:49:46.461Z,22.03
2019-06-07T22:52:18.670Z,22.03
2019-06-07T22:54:50.934Z,22.02
2019-06-07T22:57:24.874Z,22.00
2019-06-07T22:59:57.117Z,22.00
2019-06-07T23:02:29.388Z,21.97
2019-06-07T23:05:04.796Z,21.94
2019-06-07T23:07:35.610Z,21.89
2019-06-07T23:10:09.030Z,21.86
2019-06-07T23:12:41.574Z,21.84
2019-06-07T23:15:13.841Z,21.85
2019-06-07T23:17:46.087Z,21.87
2019-06-07T23:20:18.460Z,21.89
2019-06-07T23:22:50.763Z,21.90
2019-06-07T23:25:24.639Z,21.92
2019-06-07T23:27:57.335Z,21.93
2019-06-07T23:30:29.501Z,21.90
2019-06-07T23:33:01.770Z,21.87
2019-06-07T23:35:34.031Z,21.85
2019-06-07T23:38:06.303Z,21.83
2019-06-07T23:40:38.712Z,21.83
2019-06-07T23:43:11.659Z,21.85
2019-06-07T23:45:43.935Z,21.85
2019-06-07T23:48:17.406Z,21.83
2019-06-07T23:50:49.748Z,21.83
2019-06-07T23:53:22.272Z,21.81
2019-06-07T23:55:54.473Z,21.80
2019-06-07T23:58:26.653Z,21.78
